Time,TemperatureF,DewpointF,PressureIn,WindDirection,WindDirectionDegrees,WindSpeedMPH,WindSpeedGustMPH,Humidity,HourlyPrecipIn,Conditions,Clouds,dailyrainin,SoftwareType,DateUTC
2013-07-09 00:03:00,88.0,59.2,29.95,ENE,68,3.0,3.0,38,0.00,,SKC,0.00,VWS V14.01,2013-07-09 07:03:00,
2013-07-09 00:08:00,88.0,59.2,29.95,ENE,68,7.0,8.0,38,0.00,,SKC,0.00,VWS V14.01,2013-07-09 07:08:00,
2013-07-09 00:13:00,88.0,59.2,29.94,ENE,68,5.0,5.0,38,0.00,,SKC,0.00,VWS V14.01,2013-07-09 07:13:00,
2013-07-09 00:18:00,88.0,59.2,29.94,NE,45,1.0,2.0,38,0.00,,SKC,0.00,VWS V14.01,2013-07-09 07:18:00,
2013-07-09 00:23:00,88.0,59.2,29.94,SSE,158,3.0,3.0,38,0.00,,SKC,0.00,VWS V14.01,2013-07-09 07:23:00,
2013-07-09 00:28:00,87.0,58.3,29.94,SE,135,3.0,3.0,38,0.00,,SKC,0.00,VWS V14.01,2013-07-09 07:28:00,
2013-07-09 00:33:00,87.0,59.1,29.95,West,270,5.0,6.0,39,0.00,,SKC,0.00,VWS V14.01,2013-07-09 07:33:00,
2013-07-09 00:38:00,87.0,59.8,29.95,WSW,248,6.0,6.0,40,0.00,,SKC,0.00,VWS V14.01,2013-07-09 07:38:00,
2013-07-09 00:43:00,87.0,59.8,29.95,WSW,248,8.0,8.0,40,0.00,,SKC,0.00,VWS V14.01,2013-07-09 07:43:00,
2013-07-09 00:48:00,87.0,59.1,29.95,SSW,202,5.0,5.0,39,0.00,,SKC,0.00,VWS V14.01,2013-07-09 07:48:00,
2013-07-09 00:53:00,87.0,58.3,29.95,SE,135,3.0,4.0,38,0.00,,SKC,0.00,VWS V14.01,2013-07-09 07:53:00,
2013-07-09 00:58:00,88.0,58.5,29.95,SW,225,8.0,8.0,37,0.00,,SKC,0.00,VWS V14.01,2013-07-09 07:58:00,
2013-07-09 01:03:00,88.0,58.5,29.96,SE,135,4.0,4.0,37,0.00,,SKC,0.00,VWS V14.01,2013-07-09 08:03:00,
2013-07-09 01:08:00,88.0,58.5,29.96,SSE,158,6.0,6.0,37,0.00,,SKC,0.00,VWS V14.01,2013-07-09 08:08:00,
2013-07-09 01:13:00,89.0,59.4,29.96,SSW,202,2.0,3.0,37,0.00,,SKC,0.00,VWS V14.01,2013-07-09 08:13:00,
2013-07-09 01:18:00,89.0,59.4,29.96,SE,135,5.0,5.0,37,0.00,,SKC,0.00,VWS V14.01,2013-07-09 08:18:00,
2013-07-09 01:23:00,89.0,59.4,29.97,SSE,158,5.0,8.0,37,0.00,,SKC,0.00,VWS V14.01,2013-07-09 08:23:00,
2013-07-09 01:28:00,89.0,59.4,29.97,SW,225,3.0,5.0,37,0.00,,SKC,0.00,VWS V14.01,2013-07-09 08:28:00,
2013-07-09 01:33:00,89.0,59.4,29.97,SE,135,2.0,3.0,37,0.00,,SKC,0.00,VWS V14.01,2013-07-09 08:33:00,
2013-07-09 01:38:00,89.0,60.1,29.97,ENE,68,3.0,5.0,38,0.00,,SKC,0.00,VWS V14.01,2013-07-09 08:38:00,
2013-07-09 01:43:00,88.0,59.2,29.98,NE,45,2.0,3.0,38,0.00,,SKC,0.00,VWS V14.01,2013-07-09 08:43:00,
2013-07-09 01:48:00,88.0,60.0,29.98,WSW,248,0.0,0.0,39,0.00,,SKC,0.00,VWS V14.01,2013-07-09 08:48:00,
2013-07-09 01:53:00,87.0,59.1,29.98,East,90,0.0,1.0,39,0.00,,SKC,0.00,VWS V14.01,2013-07-09 08:53:00,
2013-07-09 01:58:00,87.0,59.1,29.99,ENE,68,1.0,1.0,39,0.00,,SKC,0.00,VWS V14.01,2013-07-09 08:58:00,
2013-07-09 02:03:00,87.0,59.1,29.99,SSE,158,4.0,4.0,39,0.00,,SKC,0.00,VWS V14.01,2013-07-09 09:03:00,
2013-07-09 02:08:00,88.0,59.2,29.99,SE,135,9.0,10.0,38,0.00,,SKC,0.00,VWS V14.01,2013-07-09 09:08:00,
2013-07-09 02:13:00,88.0,60.0,30.00,SE,135,10.0,10.0,39,0.00,,SKC,0.00,VWS V14.01,2013-07-09 09:13:00,
2013-07-09 02:18:00,87.0,59.8,30.00,ESE,112,3.0,4.0,40,0.00,,SKC,0.00,VWS V14.01,2013-07-09 09:18:00,
2013-07-09 02:23:00,87.0,59.8,30.00,SSE,158,4.0,4.0,40,0.00,,SKC,0.00,VWS V14.01,2013-07-09 09:23:00,
2013-07-09 02:28:00,88.0,62.0,30.00,SE,135,11.0,11.0,42,0.00,,SKC,0.00,VWS V14.01,2013-07-09 09:28:00,
2013-07-09 02:33:00,86.0,65.8,30.00,SSE,158,10.0,13.0,51,0.00,,SKC,0.00,VWS V14.01,2013-07-09 09:33:00,
2013-07-09 02:38:00,82.0,66.3,30.01,SSE,158,7.0,7.0,59,0.02,,SKC,0.02,VWS V14.01,2013-07-09 09:38:00,
2013-07-09 02:43:00,80.0,67.6,30.02,SSE,158,4.0,5.0,66,0.03,,SKC,0.03,VWS V14.01,2013-07-09 09:43:00,
2013-07-09 02:48:00,80.0,68.1,30.02,SSE,158,5.0,8.0,67,0.03,,SKC,0.03,VWS V14.01,2013-07-09 09:48:00,
2013-07-09 02:53:00,79.0,68.4,30.02,South,180,4.0,4.0,70,0.03,,SKC,0.03,VWS V14.01,2013-07-09 09:53:00,
2013-07-09 02:58:00,79.0,69.2,30.03,SW,225,5.0,5.0,72,0.03,,SKC,0.03,VWS V14.01,2013-07-09 09:58:00,
2013-07-09 03:03:00,79.0,69.2,30.03,WSW,248,5.0,6.0,72,0.03,,SKC,0.03,VWS V14.01,2013-07-09 10:03:00,
2013-07-09 03:08:00,80.0,68.9,30.03,WSW,248,4.0,4.0,69,0.03,,SKC,0.03,VWS V14.01,2013-07-09 10:08:00,
2013-07-09 03:13:00,80.0,68.1,30.02,West,270,4.0,5.0,67,0.03,,SKC,0.03,VWS V14.01,2013-07-09 10:13:00,
2013-07-09 03:18:00,80.0,68.9,30.01,WSW,248,5.0,6.0,69,0.03,,SKC,0.03,VWS V14.01,2013-07-09 10:18:00,
2013-07-09 03:23:00,80.0,68.9,30.01,WSW,248,5.0,5.0,69,0.03,,SKC,0.03,VWS V14.01,2013-07-09 10:23:00,
2013-07-09 03:28:00,80.0,68.1,30.02,West,270,5.0,5.0,67,0.03,,SKC,0.03,VWS V14.01,2013-07-09 10:28:00,
2013-07-09 03:33:00,81.0,68.1,30.02,WSW,248,5.0,5.0,65,0.03,,SKC,0.03,VWS V14.01,2013-07-09 10:33:00,
2013-07-09 03:38:00,81.0,67.7,30.02,WSW,248,5.0,5.0,64,0.02,,SKC,0.03,VWS V14.01,2013-07-09 10:38:00,
2013-07-09 03:43:00,82.0,67.7,30.02,SW,225,6.0,6.0,62,0.00,,SKC,0.03,VWS V14.01,2013-07-09 10:43:00,
2013-07-09 03:48:00,82.0,67.2,30.02,SSW,202,2.0,3.0,61,0.00,,SKC,0.03,VWS V14.01,2013-07-09 10:48:00,
2013-07-09 03:53:00,83.0,67.7,30.02,South,180,3.0,3.0,60,0.00,,SKC,0.03,VWS V14.01,2013-07-09 10:53:00,
2013-07-09 03:58:00,83.0,67.7,30.01,SW,225,5.0,5.0,60,0.00,,SKC,0.03,VWS V14.01,2013-07-09 10:58:00,
2013-07-09 04:03:00,82.0,67.7,30.01,WSW,248,4.0,5.0,62,0.00,,SKC,0.03,VWS V14.01,2013-07-09 11:03:00,
2013-07-09 04:08:00,82.0,68.2,30.01,South,180,3.0,5.0,63,0.00,,SKC,0.03,VWS V14.01,2013-07-09 11:08:00,
2013-07-09 04:13:00,82.0,68.6,30.01,SE,135,5.0,5.0,64,0.00,,SKC,0.03,VWS V14.01,2013-07-09 11:13:00,
2013-07-09 04:18:00,82.0,69.1,30.02,SE,135,5.0,7.0,65,0.00,,SKC,0.03,VWS V14.01,2013-07-09 11:18:00,
2013-07-09 04:23:00,82.0,70.0,30.02,SSE,158,7.0,7.0,67,0.00,,SKC,0.03,VWS V14.01,2013-07-09 11:23:00,
2013-07-09 04:28:00,81.0,69.4,30.02,SE,135,7.0,7.0,68,0.00,,SKC,0.03,VWS V14.01,2013-07-09 11:28:00,
2013-07-09 04:33:00,81.0,69.9,30.02,SSE,158,3.0,5.0,69,0.00,,SKC,0.03,VWS V14.01,2013-07-09 11:33:00,
2013-07-09 04:38:00,81.0,69.9,30.01,South,180,3.0,5.0,69,0.00,,SKC,0.03,VWS V14.01,2013-07-09 11:38:00,
2013-07-09 04:43:00,80.0,69.3,30.02,SE,135,8.0,11.0,70,0.01,,SKC,0.04,VWS V14.01,2013-07-09 11:43:00,
2013-07-09 04:48:00,80.0,69.8,30.02,SW,225,6.0,6.0,71,0.01,,SKC,0.04,VWS V14.01,2013-07-09 11:48:00,
2013-07-09 04:53:00,79.0,69.2,30.02,SSE,158,5.0,6.0,72,0.01,,SKC,0.04,VWS V14.01,2013-07-09 11:53:00,
2013-07-09 04:58:00,79.0,69.6,30.02,SW,225,6.0,9.0,73,0.01,,SKC,0.04,VWS V14.01,2013-07-09 11:58:00,
2013-07-09 05:03:00,79.0,69.6,30.03,SSE,158,4.0,10.0,73,0.01,,SKC,0.04,VWS V14.01,2013-07-09 12:03:00,
2013-07-09 05:08:00,79.0,69.6,30.03,South,180,10.0,10.0,73,0.01,,SKC,0.04,VWS V14.01,2013-07-09 12:08:00,
2013-07-09 05:13:00,78.0,68.7,30.03,SSW,202,5.0,5.0,73,0.01,,SKC,0.04,VWS V14.01,2013-07-09 12:13:00,
2013-07-09 05:18:00,78.0,68.7,30.03,SSE,158,7.0,11.0,73,0.01,,SKC,0.04,VWS V14.01,2013-07-09 12:18:00,
2013-07-09 05:23:00,78.0,68.7,30.03,SSW,202,5.0,6.0,73,0.01,,SKC,0.04,VWS V14.01,2013-07-09 12:23:00,
2013-07-09 05:28:00,78.0,68.7,30.03,South,180,3.0,3.0,73,0.01,,SKC,0.04,VWS V14.01,2013-07-09 12:28:00,
2013-07-09 05:33:00,78.0,68.7,30.03,SSE,158,4.0,4.0,73,0.01,,SKC,0.04,VWS V14.01,2013-07-09 12:33:00,
2013-07-09 05:38:00,78.0,68.7,30.03,SSW,202,5.0,5.0,73,0.01,,SKC,0.04,VWS V14.01,2013-07-09 12:38:00,
2013-07-09 05:43:00,78.0,68.7,30.03,South,180,5.0,5.0,73,0.00,,SKC,0.04,VWS V14.01,2013-07-09 12:43:00,
2013-07-09 05:48:00,79.0,69.6,30.03,SW,225,1.0,3.0,73,0.00,,SKC,0.04,VWS V14.01,2013-07-09 12:48:00,
2013-07-09 05:53:00,79.0,69.2,30.03,SSW,202,1.0,2.0,72,0.00,,SKC,0.04,VWS V14.01,2013-07-09 12:53:00,
2013-07-09 05:58:00,79.0,69.6,30.03,SSW,202,0.0,1.0,73,0.00,,SKC,0.04,VWS V14.01,2013-07-09 12:58:00,
2013-07-09 06:03:00,79.0,69.6,30.03,South,180,2.0,3.0,73,0.00,,SKC,0.04,VWS V14.01,2013-07-09 13:03:00,
2013-07-09 06:08:00,79.0,69.6,30.04,South,180,0.0,0.0,73,0.00,,SKC,0.04,VWS V14.01,2013-07-09 13:08:00,
2013-07-09 06:13:00,79.0,69.6,30.04,South,180,0.0,0.0,73,0.00,,SKC,0.04,VWS V14.01,2013-07-09 13:13:00,
2013-07-09 06:18:00,79.0,70.0,30.04,South,180,0.0,0.0,74,0.00,,SKC,0.04,VWS V14.01,2013-07-09 13:18:00,
2013-07-09 06:23:00,79.0,70.0,30.04,South,180,0.0,0.0,74,0.00,,SKC,0.04,VWS V14.01,2013-07-09 13:23:00,
2013-07-09 06:28:00,79.0,70.0,30.04,South,180,0.0,0.0,74,0.00,,SKC,0.04,VWS V14.01,2013-07-09 13:28:00,
2013-07-09 06:33:00,79.0,69.6,30.04,South,180,0.0,0.0,73,0.00,,SKC,0.04,VWS V14.01,2013-07-09 13:33:00,
2013-07-09 06:38:00,79.0,69.6,30.04,South,180,0.0,0.0,73,0.00,,SKC,0.04,VWS V14.01,2013-07-09 13:38:00,
2013-07-09 06:43:00,79.0,69.6,30.05,South,180,0.0,0.0,73,0.00,,SKC,0.04,VWS V14.01,2013-07-09 13:43:00,
2013-07-09 06:48:00,79.0,69.6,30.05,South,180,0.0,0.0,73,0.00,,SKC,0.04,VWS V14.01,2013-07-09 13:48:00,
2013-07-09 06:53:00,79.0,69.6,30.05,South,180,0.0,0.0,73,0.00,,SKC,0.04,VWS V14.01,2013-07-09 13:53:00,
2013-07-09 06:58:00,79.0,69.6,30.05,ENE,68,1.0,1.0,73,0.00,,SKC,0.04,VWS V14.01,2013-07-09 13:58:00,
2013-07-09 07:03:00,80.0,70.6,30.05,ENE,68,0.0,1.0,73,0.00,,SKC,0.04,VWS V14.01,2013-07-09 14:03:00,
2013-07-09 07:08:00,80.0,70.6,30.05,ENE,68,3.0,3.0,73,0.00,,SKC,0.04,VWS V14.01,2013-07-09 14:08:00,
2013-07-09 07:13:00,80.0,70.2,30.05,NE,45,1.0,1.0,72,0.00,,SKC,0.04,VWS V14.01,2013-07-09 14:13:00,
2013-07-09 07:18:00,80.0,70.2,30.05,ENE,68,1.0,1.0,72,0.00,,SKC,0.04,VWS V14.01,2013-07-09 14:18:00,
2013-07-09 07:23:00,80.0,70.6,30.06,NE,45,1.0,2.0,73,0.00,,SKC,0.04,VWS V14.01,2013-07-09 14:23:00,
2013-07-09 07:28:00,80.0,70.6,30.06,NNE,22,2.0,3.0,73,0.00,,SKC,0.04,VWS V14.01,2013-07-09 14:28:00,
2013-07-09 07:33:00,80.0,70.2,30.06,NW,315,0.0,0.0,72,0.00,,SKC,0.04,VWS V14.01,2013-07-09 14:33:00,
2013-07-09 07:38:00,80.0,69.8,30.06,North,0,0.0,0.0,71,0.00,,SKC,0.04,VWS V14.01,2013-07-09 14:38:00,
2013-07-09 07:43:00,80.0,69.8,30.06,NNE,22,2.0,3.0,71,0.00,,SKC,0.04,VWS V14.01,2013-07-09 14:43:00,
2013-07-09 07:48:00,80.0,69.3,30.07,NNE,22,0.0,1.0,70,0.00,,SKC,0.04,VWS V14.01,2013-07-09 14:48:00,
2013-07-09 07:53:00,80.0,69.3,30.07,NNE,22,2.0,2.0,70,0.00,,SKC,0.04,VWS V14.01,2013-07-09 14:53:00,
2013-07-09 07:58:00,80.0,68.9,30.06,NNW,338,0.0,1.0,69,0.00,,SKC,0.04,VWS V14.01,2013-07-09 14:58:00,
2013-07-09 08:03:00,80.0,68.9,30.06,NW,315,5.0,5.0,69,0.00,,SKC,0.04,VWS V14.01,2013-07-09 15:03:00,
2013-07-09 08:08:00,81.0,69.9,30.06,NW,315,6.0,6.0,69,0.00,,SKC,0.04,VWS V14.01,2013-07-09 15:08:00,
2013-07-09 08:13:00,81.0,69.9,30.06,NW,315,3.0,3.0,69,0.00,,SKC,0.04,VWS V14.01,2013-07-09 15:13:00,
2013-07-09 08:18:00,81.0,69.4,30.06,NNW,338,1.0,2.0,68,0.00,,SKC,0.04,VWS V14.01,2013-07-09 15:18:00,
2013-07-09 08:23:00,81.0,68.6,30.06,NNW,338,1.0,2.0,66,0.00,,SKC,0.04,VWS V14.01,2013-07-09 15:23:00,
2013-07-09 08:28:00,82.0,69.5,30.06,NNW,338,3.0,3.0,66,0.00,,SKC,0.04,VWS V14.01,2013-07-09 15:28:00,
2013-07-09 08:34:00,82.0,69.1,30.06,NNE,22,3.0,5.0,65,0.00,,SKC,0.04,VWS V14.01,2013-07-09 15:34:00,
2013-07-09 08:40:00,83.0,69.1,30.06,North,0,4.0,4.0,63,0.00,,SKC,0.04,VWS V14.01,2013-07-09 15:40:00,
2013-07-09 08:46:00,83.0,68.2,30.06,North,0,3.0,5.0,61,0.00,,SKC,0.04,VWS V14.01,2013-07-09 15:46:00,
2013-07-09 08:51:00,84.0,68.6,30.06,NNE,22,0.0,1.0,60,0.00,,SKC,0.04,VWS V14.01,2013-07-09 15:51:00,
2013-07-09 08:56:00,84.0,68.1,30.06,NE,45,0.0,1.0,59,0.00,,SKC,0.04,VWS V14.01,2013-07-09 15:56:00,
2013-07-09 09:01:00,85.0,69.1,30.06,NW,315,1.0,2.0,59,0.00,,SKC,0.04,VWS V14.01,2013-07-09 16:01:00,
2013-07-09 09:06:00,85.0,68.1,30.06,NNW,338,3.0,3.0,57,0.00,,SKC,0.04,VWS V14.01,2013-07-09 16:06:00,
2013-07-09 09:11:00,85.0,67.0,30.06,North,0,1.0,2.0,55,0.00,,SKC,0.04,VWS V14.01,2013-07-09 16:11:00,
2013-07-09 09:16:00,85.0,66.5,30.06,ENE,68,1.0,2.0,54,0.00,,SKC,0.04,VWS V14.01,2013-07-09 16:16:00,
2013-07-09 09:21:00,85.0,67.0,30.06,NNW,338,3.0,3.0,55,0.00,,SKC,0.04,VWS V14.01,2013-07-09 16:21:00,
2013-07-09 09:26:00,85.0,67.0,30.06,WSW,248,4.0,4.0,55,0.00,,SKC,0.04,VWS V14.01,2013-07-09 16:26:00,
2013-07-09 09:31:00,85.0,67.6,30.06,WSW,248,4.0,4.0,56,0.00,,SKC,0.04,VWS V14.01,2013-07-09 16:31:00,
2013-07-09 09:36:00,85.0,66.5,30.06,NW,315,1.0,2.0,54,0.00,,SKC,0.04,VWS V14.01,2013-07-09 16:36:00,
2013-07-09 09:41:00,85.0,66.5,30.07,WNW,292,0.0,0.0,54,0.00,,SKC,0.04,VWS V14.01,2013-07-09 16:41:00,
2013-07-09 09:46:00,85.0,66.5,30.07,WSW,248,5.0,5.0,54,0.00,,SKC,0.04,VWS V14.01,2013-07-09 16:46:00,
2013-07-09 09:51:00,86.0,67.4,30.07,WSW,248,5.0,5.0,54,0.00,,SKC,0.04,VWS V14.01,2013-07-09 16:51:00,
2013-07-09 09:56:00,86.0,67.4,30.07,WSW,248,4.0,4.0,54,0.00,,SKC,0.04,VWS V14.01,2013-07-09 16:56:00,
2013-07-09 10:01:00,87.0,67.8,30.06,SW,225,4.0,6.0,53,0.00,,SKC,0.04,VWS V14.01,2013-07-09 17:01:00,
2013-07-09 10:06:00,87.0,66.7,30.07,SW,225,6.0,7.0,51,0.00,,SKC,0.04,VWS V14.01,2013-07-09 17:06:00,
2013-07-09 10:11:00,87.0,66.1,30.07,SW,225,3.0,5.0,50,0.00,,SKC,0.04,VWS V14.01,2013-07-09 17:11:00,
2013-07-09 10:16:00,88.0,67.1,30.07,WSW,248,3.0,3.0,50,0.00,,SKC,0.04,VWS V14.01,2013-07-09 17:16:00,
2013-07-09 10:21:00,88.0,67.1,30.07,West,270,6.0,6.0,50,0.00,,SKC,0.04,VWS V14.01,2013-07-09 17:21:00,
2013-07-09 10:26:00,87.0,65.6,30.07,West,270,3.0,4.0,49,0.00,,SKC,0.04,VWS V14.01,2013-07-09 17:26:00,
2013-07-09 10:31:00,88.0,66.5,30.07,WSW,248,7.0,7.0,49,0.00,,SKC,0.04,VWS V14.01,2013-07-09 17:31:00,
2013-07-09 10:36:00,89.0,66.8,30.07,WSW,248,8.0,8.0,48,0.00,,SKC,0.04,VWS V14.01,2013-07-09 17:36:00,
2013-07-09 10:41:00,89.0,66.2,30.07,West,270,7.0,7.0,47,0.00,,SKC,0.04,VWS V14.01,2013-07-09 17:41:00,
2013-07-09 10:46:00,89.0,66.2,30.07,WSW,248,11.0,12.0,47,0.00,,SKC,0.04,VWS V14.01,2013-07-09 17:46:00,
2013-07-09 10:51:00,88.0,65.3,30.07,WNW,292,6.0,8.0,47,0.00,,SKC,0.04,VWS V14.01,2013-07-09 17:51:00,
2013-07-09 10:56:00,88.0,65.3,30.07,West,270,6.0,6.0,47,0.00,,SKC,0.04,VWS V14.01,2013-07-09 17:56:00,
2013-07-09 11:01:00,88.0,65.3,30.07,WNW,292,6.0,7.0,47,0.00,,SKC,0.04,VWS V14.01,2013-07-09 18:01:00,
2013-07-09 11:06:00,89.0,65.6,30.07,WNW,292,10.0,10.0,46,0.00,,SKC,0.04,VWS V14.01,2013-07-09 18:06:00,
2013-07-09 11:11:00,90.0,65.8,30.06,NW,315,6.0,6.0,45,0.00,,SKC,0.04,VWS V14.01,2013-07-09 18:11:00,
2013-07-09 11:16:00,89.0,64.9,30.06,WSW,248,9.0,11.0,45,0.00,,SKC,0.04,VWS V14.01,2013-07-09 18:16:00,
2013-07-09 11:21:00,89.0,65.6,30.06,West,270,5.0,7.0,46,0.00,,SKC,0.04,VWS V14.01,2013-07-09 18:21:00,
2013-07-09 11:26:00,89.0,66.2,30.06,West,270,10.0,10.0,47,0.00,,SKC,0.04,VWS V14.01,2013-07-09 18:26:00,
2013-07-09 11:31:00,90.0,66.5,30.06,SW,225,6.0,8.0,46,0.00,,SKC,0.04,VWS V14.01,2013-07-09 18:31:00,
2013-07-09 11:36:00,90.0,66.5,30.06,WSW,248,8.0,9.0,46,0.00,,SKC,0.04,VWS V14.01,2013-07-09 18:36:00,
2013-07-09 11:41:00,90.0,65.8,30.06,WSW,248,9.0,14.0,45,0.00,,SKC,0.04,VWS V14.01,2013-07-09 18:41:00,
2013-07-09 11:46:00,91.0,65.4,30.06,West,270,7.0,8.0,43,0.00,,SKC,0.04,VWS V14.01,2013-07-09 18:46:00,
2013-07-09 11:51:00,91.0,66.1,30.05,WSW,248,10.0,11.0,44,0.00,,SKC,0.04,VWS V14.01,2013-07-09 18:51:00,
2013-07-09 11:56:00,91.0,66.1,30.05,WNW,292,8.0,10.0,44,0.00,,SKC,0.04,VWS V14.01,2013-07-09 18:56:00,
2013-07-09 12:01:00,91.0,66.1,30.05,WSW,248,8.0,9.0,44,0.00,,SKC,0.04,VWS V14.01,2013-07-09 19:01:00,
2013-07-09 12:07:00,91.0,65.4,30.05,West,270,8.0,9.0,43,0.00,,SKC,0.04,VWS V14.01,2013-07-09 19:07:00,
2013-07-09 12:12:00,91.0,66.1,30.05,NW,315,4.0,5.0,44,0.00,,SKC,0.04,VWS V14.01,2013-07-09 19:12:00,
2013-07-09 12:17:00,91.0,66.1,30.05,West,270,12.0,16.0,44,0.00,,SKC,0.04,VWS V14.01,2013-07-09 19:17:00,
2013-07-09 12:23:00,91.0,66.1,30.05,West,270,8.0,9.0,44,0.00,,SKC,0.04,VWS V14.01,2013-07-09 19:23:00,
2013-07-09 12:28:00,91.0,66.1,30.05,WNW,292,7.0,11.0,44,0.00,,SKC,0.04,VWS V14.01,2013-07-09 19:28:00,
2013-07-09 12:33:00,90.0,64.5,30.04,WNW,292,10.0,10.0,43,0.00,,SKC,0.04,VWS V14.01,2013-07-09 19:33:00,
2013-07-09 12:36:00,91.0,66.1,30.04,WNW,292,11.0,11.0,44,0.00,,SKC,0.04,VWS V14.01,2013-07-09 19:36:00,
2013-07-09 12:41:00,91.0,65.4,30.04,WSW,248,6.0,6.0,43,0.00,,SKC,0.04,VWS V14.01,2013-07-09 19:41:00,
2013-07-09 12:46:00,91.0,64.1,30.04,West,270,10.0,13.0,41,0.00,,SKC,0.04,VWS V14.01,2013-07-09 19:46:00,
2013-07-09 12:52:00,92.0,65.6,30.04,WSW,248,13.0,13.0,42,0.00,,SKC,0.04,VWS V14.01,2013-07-09 19:52:00,
2013-07-09 12:57:00,93.0,65.8,30.03,WSW,248,8.0,8.0,41,0.00,,SKC,0.04,VWS V14.01,2013-07-09 19:57:00,
2013-07-09 13:02:00,93.0,65.1,30.03,WSW,248,5.0,6.0,40,0.00,,SKC,0.04,VWS V14.01,2013-07-09 20:02:00,
2013-07-09 13:07:00,92.0,64.9,30.03,West,270,8.0,12.0,41,0.00,,SKC,0.04,VWS V14.01,2013-07-09 20:07:00,
2013-07-09 13:12:00,92.0,64.9,30.03,NW,315,10.0,10.0,41,0.00,,SKC,0.04,VWS V14.01,2013-07-09 20:12:00,
2013-07-09 13:17:00,93.0,64.4,30.02,West,270,10.0,11.0,39,0.00,,SKC,0.04,VWS V14.01,2013-07-09 20:17:00,
2013-07-09 13:22:00,93.0,65.1,30.02,WSW,248,6.0,7.0,40,0.00,,SKC,0.04,VWS V14.01,2013-07-09 20:22:00,
2013-07-09 13:27:00,94.0,65.3,30.02,West,270,10.0,11.0,39,0.00,,SKC,0.04,VWS V14.01,2013-07-09 20:27:00,
2013-07-09 13:33:00,93.0,63.7,30.02,WSW,248,4.0,5.0,38,0.00,,SKC,0.04,VWS V14.01,2013-07-09 20:33:00,
2013-07-09 13:38:00,93.0,64.4,30.02,WNW,292,13.0,14.0,39,0.00,,SKC,0.04,VWS V14.01,2013-07-09 20:38:00,
2013-07-09 13:44:00,93.0,64.4,30.01,West,270,9.0,9.0,39,0.00,,SKC,0.04,VWS V14.01,2013-07-09 20:44:00,
2013-07-09 13:49:00,93.0,63.7,30.01,WNW,292,11.0,11.0,38,0.00,,SKC,0.04,VWS V14.01,2013-07-09 20:49:00,
2013-07-09 13:55:00,93.0,63.7,30.01,NW,315,9.0,9.0,38,0.00,,SKC,0.04,VWS V14.01,2013-07-09 20:55:00,
2013-07-09 14:01:00,93.0,63.7,30.01,West,270,8.0,9.0,38,0.00,,SKC,0.04,VWS V14.01,2013-07-09 21:01:00,
2013-07-09 14:07:00,94.0,64.6,30.00,WNW,292,8.0,11.0,38,0.00,,SKC,0.04,VWS V14.01,2013-07-09 21:07:00,
2013-07-09 14:12:00,94.0,63.8,30.00,WNW,292,6.0,10.0,37,0.00,,SKC,0.04,VWS V14.01,2013-07-09 21:12:00,
2013-07-09 14:17:00,95.0,63.9,30.00,WNW,292,7.0,8.0,36,0.00,,SKC,0.04,VWS V14.01,2013-07-09 21:17:00,
2013-07-09 14:22:00,95.0,63.1,29.99,WSW,248,10.0,11.0,35,0.00,,SKC,0.04,VWS V14.01,2013-07-09 21:22:00,
2013-07-09 14:27:00,95.0,63.9,29.99,West,270,8.0,9.0,36,0.00,,SKC,0.04,VWS V14.01,2013-07-09 21:27:00,
2013-07-09 14:33:00,95.0,62.3,29.99,NW,315,12.0,13.0,34,0.00,,SKC,0.04,VWS V14.01,2013-07-09 21:33:00,
2013-07-09 14:39:00,95.0,63.1,29.99,WNW,292,13.0,13.0,35,0.00,,SKC,0.04,VWS V14.01,2013-07-09 21:39:00,
2013-07-09 14:44:00,96.0,64.0,29.99,West,270,8.0,10.0,35,0.00,,SKC,0.04,VWS V14.01,2013-07-09 21:44:00,
2013-07-09 14:49:00,96.0,64.8,29.99,WSW,248,6.0,8.0,36,0.00,,SKC,0.04,VWS V14.01,2013-07-09 21:49:00,
2013-07-09 14:54:00,95.0,63.1,29.98,WSW,248,7.0,8.0,35,0.00,,SKC,0.04,VWS V14.01,2013-07-09 21:54:00,
2013-07-09 14:59:00,95.0,63.1,29.98,WNW,292,8.0,10.0,35,0.00,,SKC,0.04,VWS V14.01,2013-07-09 21:59:00,
2013-07-09 15:04:00,95.0,62.3,29.97,West,270,10.0,12.0,34,0.00,,SKC,0.04,VWS V14.01,2013-07-09 22:04:00,
2013-07-09 15:09:00,96.0,63.1,29.97,West,270,8.0,8.0,34,0.00,,SKC,0.04,VWS V14.01,2013-07-09 22:09:00,
2013-07-09 15:14:00,95.0,62.3,29.97,West,270,11.0,12.0,34,0.00,,SKC,0.04,VWS V14.01,2013-07-09 22:14:00,
2013-07-09 15:20:00,96.0,62.3,29.97,WNW,292,5.0,5.0,33,0.00,,SKC,0.04,VWS V14.01,2013-07-09 22:20:00,
2013-07-09 15:25:00,97.0,63.2,29.97,West,270,8.0,11.0,33,0.00,,SKC,0.04,VWS V14.01,2013-07-09 22:25:00,
2013-07-09 15:30:00,97.0,62.3,29.96,WNW,292,16.0,18.0,32,0.00,,SKC,0.04,VWS V14.01,2013-07-09 22:30:00,
2013-07-09 15:35:00,96.0,61.4,29.96,West,270,9.0,11.0,32,0.00,,SKC,0.04,VWS V14.01,2013-07-09 22:35:00,
2013-07-09 15:40:00,95.0,61.4,29.96,WSW,248,5.0,6.0,33,0.00,,SKC,0.04,VWS V14.01,2013-07-09 22:40:00,
2013-07-09 15:45:00,97.0,63.2,29.96,WNW,292,9.0,11.0,33,0.00,,SKC,0.04,VWS V14.01,2013-07-09 22:45:00,
2013-07-09 15:50:00,96.0,63.1,29.96,West,270,10.0,13.0,34,0.00,,SKC,0.04,VWS V14.01,2013-07-09 22:50:00,
2013-07-09 15:56:00,96.0,63.1,29.96,West,270,10.0,11.0,34,0.00,,SKC,0.04,VWS V14.01,2013-07-09 22:56:00,
2013-07-09 16:01:00,96.0,63.1,29.96,WNW,292,10.0,13.0,34,0.00,,SKC,0.04,VWS V14.01,2013-07-09 23:01:00,
2013-07-09 16:06:00,95.0,61.4,29.96,NW,315,6.0,8.0,33,0.00,,SKC,0.04,VWS V14.01,2013-07-09 23:06:00,
2013-07-09 16:11:00,96.0,63.1,29.95,WNW,292,8.0,9.0,34,0.00,,SKC,0.04,VWS V14.01,2013-07-09 23:11:00,
2013-07-09 16:16:00,96.0,63.1,29.95,West,270,8.0,8.0,34,0.00,,SKC,0.04,VWS V14.01,2013-07-09 23:16:00,
2013-07-09 16:22:00,96.0,63.1,29.95,NW,315,10.0,12.0,34,0.00,,SKC,0.04,VWS V14.01,2013-07-09 23:22:00,
2013-07-09 16:27:00,96.0,63.1,29.95,NW,315,3.0,3.0,34,0.00,,SKC,0.04,VWS V14.01,2013-07-09 23:27:00,
2013-07-09 16:32:00,97.0,63.2,29.95,NW,315,5.0,5.0,33,0.00,,SKC,0.04,VWS V14.01,2013-07-09 23:32:00,
2013-07-09 16:37:00,96.0,63.1,29.95,WSW,248,6.0,10.0,34,0.00,,SKC,0.04,VWS V14.01,2013-07-09 23:37:00,
2013-07-09 16:43:00,96.0,63.1,29.94,West,270,13.0,14.0,34,0.00,,SKC,0.04,VWS V14.01,2013-07-09 23:43:00,
2013-07-09 16:48:00,96.0,63.1,29.94,West,270,8.0,8.0,34,0.00,,SKC,0.04,VWS V14.01,2013-07-09 23:48:00,
2013-07-09 16:53:00,96.0,63.1,29.94,West,270,7.0,9.0,34,0.00,,SKC,0.04,VWS V14.01,2013-07-09 23:53:00,
2013-07-09 16:58:00,96.0,63.1,29.93,West,270,7.0,11.0,34,0.00,,SKC,0.04,VWS V14.01,2013-07-09 23:58:00,
2013-07-09 17:03:00,96.0,63.1,29.93,West,270,5.0,8.0,34,0.00,,SKC,0.04,VWS V14.01,2013-07-10 00:03:00,
2013-07-09 17:08:00,95.0,62.3,29.93,WNW,292,10.0,11.0,34,0.00,,SKC,0.04,VWS V14.01,2013-07-10 00:08:00,
2013-07-09 17:13:00,95.0,62.3,29.93,West,270,18.0,19.0,34,0.00,,SKC,0.04,VWS V14.01,2013-07-10 00:13:00,
2013-07-09 17:19:00,95.0,62.3,29.93,WNW,292,15.0,16.0,34,0.00,,SKC,0.04,VWS V14.01,2013-07-10 00:19:00,
2013-07-09 17:25:00,95.0,62.3,29.94,NW,315,13.0,14.0,34,0.00,,SKC,0.04,VWS V14.01,2013-07-10 00:25:00,
2013-07-09 17:30:00,96.0,63.1,29.94,WNW,292,8.0,10.0,34,0.00,,SKC,0.04,VWS V14.01,2013-07-10 00:30:00,
2013-07-09 17:35:00,95.0,62.3,29.94,WNW,292,14.0,17.0,34,0.00,,SKC,0.04,VWS V14.01,2013-07-10 00:35:00,
2013-07-09 17:40:00,95.0,62.3,29.93,West,270,10.0,13.0,34,0.00,,SKC,0.04,VWS V14.01,2013-07-10 00:40:00,
2013-07-09 17:46:00,95.0,62.3,29.93,West,270,6.0,11.0,34,0.00,,SKC,0.04,VWS V14.01,2013-07-10 00:46:00,
2013-07-09 17:52:00,96.0,62.3,29.93,NW,315,6.0,6.0,33,0.00,,SKC,0.04,VWS V14.01,2013-07-10 00:52:00,
2013-07-09 17:58:00,95.0,61.4,29.93,WNW,292,12.0,14.0,33,0.00,,SKC,0.04,VWS V14.01,2013-07-10 00:58:00,
2013-07-09 18:04:00,95.0,62.3,29.92,WNW,292,9.0,13.0,34,0.00,,SKC,0.04,VWS V14.01,2013-07-10 01:04:00,
2013-07-09 18:10:00,95.0,62.3,29.92,WNW,292,10.0,11.0,34,0.00,,SKC,0.04,VWS V14.01,2013-07-10 01:10:00,
2013-07-09 18:16:00,94.0,60.5,29.92,WNW,292,14.0,14.0,33,0.00,,SKC,0.04,VWS V14.01,2013-07-10 01:16:00,
2013-07-09 18:21:00,95.0,61.4,29.92,WNW,292,5.0,5.0,33,0.00,,SKC,0.04,VWS V14.01,2013-07-10 01:21:00,
2013-07-09 18:26:00,94.0,60.5,29.92,NNW,338,6.0,8.0,33,0.00,,SKC,0.04,VWS V14.01,2013-07-10 01:26:00,
2013-07-09 18:31:00,94.0,61.4,29.92,West,270,10.0,12.0,34,0.00,,SKC,0.04,VWS V14.01,2013-07-10 01:31:00,
2013-07-09 18:36:00,94.0,61.4,29.92,NNW,338,7.0,10.0,34,0.00,,SKC,0.04,VWS V14.01,2013-07-10 01:36:00,
2013-07-09 18:41:00,93.0,60.5,29.92,WNW,292,7.0,9.0,34,0.00,,SKC,0.04,VWS V14.01,2013-07-10 01:41:00,
2013-07-09 18:46:00,93.0,60.5,29.92,NNW,338,5.0,8.0,34,0.00,,SKC,0.04,VWS V14.01,2013-07-10 01:46:00,
2013-07-09 18:51:00,93.0,60.5,29.92,WNW,292,6.0,6.0,34,0.00,,SKC,0.04,VWS V14.01,2013-07-10 01:51:00,
2013-07-09 18:57:00,93.0,60.5,29.92,WNW,292,6.0,10.0,34,0.00,,SKC,0.04,VWS V14.01,2013-07-10 01:57:00,
2013-07-09 19:02:00,93.0,60.5,29.92,WNW,292,6.0,7.0,34,0.00,,SKC,0.04,VWS V14.01,2013-07-10 02:02:00,
2013-07-09 19:07:00,93.0,60.5,29.92,WNW,292,5.0,6.0,34,0.00,,SKC,0.04,VWS V14.01,2013-07-10 02:07:00,
2013-07-09 19:12:00,93.0,60.5,29.93,NNW,338,3.0,5.0,34,0.00,,SKC,0.04,VWS V14.01,2013-07-10 02:12:00,
2013-07-09 19:18:00,93.0,61.3,29.93,WNW,292,6.0,6.0,35,0.00,,SKC,0.04,VWS V14.01,2013-07-10 02:18:00,
2013-07-09 19:24:00,93.0,61.3,29.93,NW,315,3.0,3.0,35,0.00,,SKC,0.04,VWS V14.01,2013-07-10 02:24:00,
2013-07-09 19:30:00,92.0,60.5,29.93,WNW,292,4.0,5.0,35,0.00,,SKC,0.04,VWS V14.01,2013-07-10 02:30:00,
2013-07-09 19:36:00,92.0,60.5,29.92,NW,315,6.0,7.0,35,0.00,,SKC,0.04,VWS V14.01,2013-07-10 02:36:00,
2013-07-09 19:41:00,92.0,60.5,29.92,NW,315,4.0,5.0,35,0.00,,SKC,0.04,VWS V14.01,2013-07-10 02:41:00,
2013-07-09 19:46:00,92.0,61.2,29.92,WNW,292,6.0,7.0,36,0.00,,SKC,0.04,VWS V14.01,2013-07-10 02:46:00,
2013-07-09 19:51:00,92.0,61.2,29.92,WNW,292,5.0,6.0,36,0.00,,SKC,0.04,VWS V14.01,2013-07-10 02:51:00,
2013-07-09 19:56:00,92.0,61.2,29.92,WNW,292,2.0,3.0,36,0.00,,SKC,0.04,VWS V14.01,2013-07-10 02:56:00,
2013-07-09 20:02:00,91.0,60.4,29.92,WNW,292,6.0,6.0,36,0.00,,SKC,0.04,VWS V14.01,2013-07-10 03:02:00,
2013-07-09 20:07:00,91.0,60.4,29.92,WNW,292,3.0,3.0,36,0.00,,SKC,0.04,VWS V14.01,2013-07-10 03:07:00,
2013-07-09 20:12:00,91.0,61.1,29.92,NW,315,3.0,4.0,37,0.00,,SKC,0.04,VWS V14.01,2013-07-10 03:12:00,
2013-07-09 20:17:00,91.0,61.1,29.92,WNW,292,5.0,5.0,37,0.00,,SKC,0.04,VWS V14.01,2013-07-10 03:17:00,
2013-07-09 20:22:00,91.0,61.1,29.92,WNW,292,5.0,5.0,37,0.00,,SKC,0.04,VWS V14.01,2013-07-10 03:22:00,
2013-07-09 20:28:00,91.0,61.1,29.92,NW,315,4.0,5.0,37,0.00,,SKC,0.04,VWS V14.01,2013-07-10 03:28:00,
2013-07-09 20:34:00,91.0,61.1,29.92,WNW,292,6.0,6.0,37,0.00,,SKC,0.04,VWS V14.01,2013-07-10 03:34:00,
2013-07-09 20:40:00,91.0,61.9,29.92,WNW,292,7.0,8.0,38,0.00,,SKC,0.04,VWS V14.01,2013-07-10 03:40:00,
2013-07-09 20:45:00,91.0,61.9,29.92,WNW,292,5.0,5.0,38,0.00,,SKC,0.04,VWS V14.01,2013-07-10 03:45:00,
2013-07-09 20:50:00,91.0,61.9,29.92,WNW,292,5.0,5.0,38,0.00,,SKC,0.04,VWS V14.01,2013-07-10 03:50:00,
2013-07-09 20:55:00,90.0,61.0,29.92,West,270,5.0,5.0,38,0.00,,SKC,0.04,VWS V14.01,2013-07-10 03:55:00,
2013-07-09 21:00:00,90.0,61.7,29.93,WNW,292,6.0,6.0,39,0.00,,SKC,0.04,VWS V14.01,2013-07-10 04:00:00,
2013-07-09 21:01:00,90.0,62.5,29.93,West,270,13.0,15.0,40,0.00,,SKC,0.04,VWS V14.01,2013-07-10 04:01:00,
2013-07-09 21:02:00,90.0,62.5,29.93,WNW,292,10.0,10.0,40,0.00,,SKC,0.04,VWS V14.01,2013-07-10 04:02:00,
2013-07-09 21:05:00,90.0,63.2,29.93,WNW,292,13.0,13.0,41,0.00,,SKC,0.04,VWS V14.01,2013-07-10 04:05:00,
2013-07-09 21:07:00,90.0,63.2,29.93,West,270,8.0,9.0,41,0.00,,SKC,0.04,VWS V14.01,2013-07-10 04:07:00,
2013-07-09 21:10:00,90.0,63.2,29.93,WNW,292,7.0,8.0,41,0.00,,SKC,0.04,VWS V14.01,2013-07-10 04:10:00,
2013-07-09 21:16:00,90.0,63.2,29.94,WNW,292,5.0,7.0,41,0.00,,SKC,0.04,VWS V14.01,2013-07-10 04:16:00,
2013-07-09 21:21:00,90.0,63.2,29.95,WNW,292,7.0,8.0,41,0.00,,SKC,0.04,VWS V14.01,2013-07-10 04:21:00,
2013-07-09 21:26:00,90.0,63.2,29.95,WNW,292,6.0,7.0,41,0.00,,SKC,0.04,VWS V14.01,2013-07-10 04:26:00,
2013-07-09 21:31:00,90.0,63.8,29.95,NW,315,3.0,5.0,42,0.00,,SKC,0.04,VWS V14.01,2013-07-10 04:31:00,
2013-07-09 21:37:00,90.0,63.8,29.96,WNW,292,2.0,3.0,42,0.00,,SKC,0.04,VWS V14.01,2013-07-10 04:37:00,
2013-07-09 21:43:00,90.0,63.8,29.96,WNW,292,5.0,5.0,42,0.00,,SKC,0.04,VWS V14.01,2013-07-10 04:43:00,
2013-07-09 21:49:00,90.0,63.8,29.96,NW,315,3.0,5.0,42,0.00,,SKC,0.04,VWS V14.01,2013-07-10 04:49:00,
2013-07-09 21:54:00,90.0,63.8,29.97,WNW,292,2.0,2.0,42,0.00,,SKC,0.04,VWS V14.01,2013-07-10 04:54:00,
2013-07-09 21:59:00,89.0,63.0,29.97,West,270,2.0,3.0,42,0.00,,SKC,0.04,VWS V14.01,2013-07-10 04:59:00,
2013-07-09 22:04:00,89.0,63.6,29.97,WNW,292,3.0,4.0,43,0.00,,SKC,0.04,VWS V14.01,2013-07-10 05:04:00,
2013-07-09 22:09:00,89.0,63.6,29.96,West,270,3.0,3.0,43,0.00,,SKC,0.04,VWS V14.01,2013-07-10 05:09:00,
2013-07-09 22:15:00,89.0,63.6,29.96,NW,315,3.0,4.0,43,0.00,,SKC,0.04,VWS V14.01,2013-07-10 05:15:00,
2013-07-09 22:20:00,89.0,63.6,29.96,WNW,292,3.0,3.0,43,0.00,,SKC,0.04,VWS V14.01,2013-07-10 05:20:00,
2013-07-09 22:25:00,89.0,64.3,29.96,WNW,292,5.0,5.0,44,0.00,,SKC,0.04,VWS V14.01,2013-07-10 05:25:00,
2013-07-09 22:30:00,89.0,64.3,29.96,WSW,248,5.0,6.0,44,0.00,,SKC,0.04,VWS V14.01,2013-07-10 05:30:00,
2013-07-09 22:35:00,89.0,64.3,29.96,WNW,292,4.0,5.0,44,0.00,,SKC,0.04,VWS V14.01,2013-07-10 05:35:00,
2013-07-09 22:41:00,89.0,64.3,29.96,West,270,3.0,3.0,44,0.00,,SKC,0.04,VWS V14.01,2013-07-10 05:41:00,
2013-07-09 22:46:00,89.0,64.3,29.96,West,270,0.0,0.0,44,0.00,,SKC,0.04,VWS V14.01,2013-07-10 05:46:00,
2013-07-09 22:51:00,89.0,64.3,29.97,West,270,0.0,0.0,44,0.00,,SKC,0.04,VWS V14.01,2013-07-10 05:51:00,
2013-07-09 22:56:00,89.0,64.3,29.96,West,270,0.0,0.0,44,0.00,,SKC,0.04,VWS V14.01,2013-07-10 05:56:00,
2013-07-09 23:01:00,89.0,64.3,29.96,West,270,1.0,2.0,44,0.00,,SKC,0.04,VWS V14.01,2013-07-10 06:01:00,
2013-07-09 23:06:00,89.0,64.9,29.96,WNW,292,2.0,3.0,45,0.00,,SKC,0.04,VWS V14.01,2013-07-10 06:06:00,
2013-07-09 23:11:00,88.0,64.0,29.97,West,270,3.0,3.0,45,0.00,,SKC,0.04,VWS V14.01,2013-07-10 06:11:00,
2013-07-09 23:16:00,88.0,64.0,29.97,SW,225,3.0,3.0,45,0.00,,SKC,0.04,VWS V14.01,2013-07-10 06:16:00,
2013-07-09 23:21:00,88.0,64.0,29.97,West,270,2.0,3.0,45,0.00,,SKC,0.04,VWS V14.01,2013-07-10 06:21:00,
2013-07-09 23:26:00,88.0,64.0,29.98,WSW,248,0.0,0.0,45,0.00,,SKC,0.04,VWS V14.01,2013-07-10 06:26:00,
2013-07-09 23:32:00,88.0,64.0,29.98,West,270,0.0,0.0,45,0.00,,SKC,0.04,VWS V14.01,2013-07-10 06:32:00,
2013-07-09 23:38:00,88.0,64.0,29.99,West,270,0.0,0.0,45,0.00,,SKC,0.04,VWS V14.01,2013-07-10 06:38:00,
2013-07-09 23:43:00,88.0,64.7,29.99,West,270,0.0,0.0,46,0.00,,SKC,0.04,VWS V14.01,2013-07-10 06:43:00,
2013-07-09 23:48:00,88.0,64.7,30.00,SE,135,3.0,3.0,46,0.00,,SKC,0.04,VWS V14.01,2013-07-10 06:48:00,
2013-07-09 23:53:00,88.0,64.7,30.00,SE,135,3.0,3.0,46,0.00,,SKC,0.04,VWS V14.01,2013-07-10 06:53:00,
2013-07-09 23:58:00,88.0,64.7,30.01,SSE,158,0.0,0.0,46,0.00,,SKC,0.00,VWS V14.01,2013-07-10 06:58:00,